sensor_id;sensor_type;location;lat;lon;timestamp;temperature;humidity
16970;DHT22;8601;48.718;8.992;2023-07-29T00:01:10;16.60;99.90
16970;DHT22;8601;48.718;8.992;2023-07-29T00:03:37;16.60;99.90
16970;DHT22;8601;48.718;8.992;2023-07-29T00:06:04;16.60;99.90
16970;DHT22;8601;48.718;8.992;2023-07-29T00:08:31;16.60;99.90
16970;DHT22;8601;48.718;8.992;2023-07-29T00:10:58;16.60;99.90
16970;DHT22;8601;48.718;8.992;2023-07-29T00:13:26;16.70;99.90
16970;DHT22;8601;48.718;8.992;2023-07-29T00:15:54;16.70;99.90
16970;DHT22;8601;48.718;8.992;2023-07-29T00:18:21;16.70;99.90
16970;DHT22;8601;48.718;8.992;2023-07-29T00:20:49;16.70;99.90
16970;DHT22;8601;48.718;8.992;2023-07-29T00:23:17;16.70;99.90
16970;DHT22;8601;48.718;8.992;2023-07-29T00:25:45;16.70;99.90
16970;DHT22;8601;48.718;8.992;2023-07-29T00:28:12;16.70;99.90
16970;DHT22;8601;48.718;8.992;2023-07-29T00:30:40;16.60;99.90
16970;DHT22;8601;48.718;8.992;2023-07-29T00:33:07;16.60;99.90
16970;DHT22;8601;48.718;8.992;2023-07-29T00:35:34;16.60;99.90
16970;DHT22;8601;48.718;8.992;2023-07-29T00:38:02;16.60;99.90
16970;DHT22;8601;48.718;8.992;2023-07-29T00:40:29;16.60;99.90
16970;DHT22;8601;48.718;8.992;2023-07-29T00:42:56;16.60;99.90
16970;DHT22;8601;48.718;8.992;2023-07-29T00:45:24;16.70;99.90
16970;DHT22;8601;48.718;8.992;2023-07-29T00:47:53;16.70;99.90
16970;DHT22;8601;48.718;8.992;2023-07-29T00:50:21;16.70;99.90
16970;DHT22;8601;48.718;8.992;2023-07-29T00:52:48;16.80;99.90
16970;DHT22;8601;48.718;8.992;2023-07-29T00:55:16;16.80;99.90
16970;DHT22;8601;48.718;8.992;2023-07-29T00:57:43;16.80;99.90
16970;DHT22;8601;48.718;8.992;2023-07-29T01:00:14;16.80;99.90
16970;DHT22;8601;48.718;8.992;2023-07-29T01:02:42;16.80;99.90
16970;DHT22;8601;48.718;8.992;2023-07-29T01:05:12;16.80;99.90
16970;DHT22;8601;48.718;8.992;2023-07-29T01:07:44;16.80;99.90
16970;DHT22;8601;48.718;8.992;2023-07-29T01:10:20;16.80;99.90
16970;DHT22;8601;48.718;8.992;2023-07-29T01:12:56;16.80;99.90
16970;DHT22;8601;48.718;8.992;2023-07-29T01:15:31;16.90;99.90
16970;DHT22;8601;48.718;8.992;2023-07-29T01:18:04;16.80;99.90
16970;DHT22;8601;48.718;8.992;2023-07-29T01:20:34;16.80;99.90
16970;DHT22;8601;48.718;8.992;2023-07-29T01:23:04;16.90;99.90
16970;DHT22;8601;48.718;8.992;2023-07-29T01:25:32;16.90;99.90
16970;DHT22;8601;48.718;8.992;2023-07-29T01:27:59;16.90;99.90
16970;DHT22;8601;48.718;8.992;2023-07-29T01:30:30;16.80;99.90
16970;DHT22;8601;48.718;8.992;2023-07-29T01:33:02;16.90;99.90
16970;DHT22;8601;48.718;8.992;2023-07-29T01:35:34;16.90;99.90
16970;DHT22;8601;48.718;8.992;2023-07-29T01:38:06;16.90;99.90
16970;DHT22;8601;48.718;8.992;2023-07-29T01:40:36;16.80;99.90
16970;DHT22;8601;48.718;8.992;2023-07-29T01:43:04;16.80;99.90
16970;DHT22;8601;48.718;8.992;2023-07-29T01:45:33;16.80;99.90
16970;DHT22;8601;48.718;8.992;2023-07-29T01:48:03;16.80;99.90
16970;DHT22;8601;48.718;8.992;2023-07-29T01:50:31;16.90;99.90
16970;DHT22;8601;48.718;8.992;2023-07-29T01:52:58;16.90;99.90
16970;DHT22;8601;48.718;8.992;2023-07-29T01:55:26;16.80;99.90
16970;DHT22;8601;48.718;8.992;2023-07-29T01:57:54;16.80;99.90
16970;DHT22;8601;48.718;8.992;2023-07-29T02:00:21;16.80;99.90
16970;DHT22;8601;48.718;8.992;2023-07-29T02:02:48;16.80;99.90
16970;DHT22;8601;48.718;8.992;2023-07-29T02:05:15;16.80;99.90
16970;DHT22;8601;48.718;8.992;2023-07-29T02:07:44;16.80;99.90
16970;DHT22;8601;48.718;8.992;2023-07-29T02:10:11;16.80;99.90
16970;DHT22;8601;48.718;8.992;2023-07-29T02:12:38;16.80;99.90
16970;DHT22;8601;48.718;8.992;2023-07-29T02:15:07;16.80;99.90
16970;DHT22;8601;48.718;8.992;2023-07-29T02:17:35;16.80;99.90
16970;DHT22;8601;48.718;8.992;2023-07-29T02:20:03;16.80;99.90
16970;DHT22;8601;48.718;8.992;2023-07-29T02:22:30;16.80;99.90
16970;DHT22;8601;48.718;8.992;2023-07-29T02:24:57;16.80;99.90
16970;DHT22;8601;48.718;8.992;2023-07-29T02:27:23;16.80;99.90
16970;DHT22;8601;48.718;8.992;2023-07-29T02:29:52;16.80;99.90
16970;DHT22;8601;48.718;8.992;2023-07-29T02:32:21;16.80;99.90
16970;DHT22;8601;48.718;8.992;2023-07-29T02:34:49;16.80;99.90
16970;DHT22;8601;48.718;8.992;2023-07-29T02:37:16;16.80;99.90
16970;DHT22;8601;48.718;8.992;2023-07-29T02:39:43;16.80;99.90
16970;DHT22;8601;48.718;8.992;2023-07-29T02:42:10;16.80;99.90
16970;DHT22;8601;48.718;8.992;2023-07-29T02:44:36;16.80;99.90
16970;DHT22;8601;48.718;8.992;2023-07-29T02:47:03;16.80;99.90
16970;DHT22;8601;48.718;8.992;2023-07-29T02:49:31;16.80;99.90
16970;DHT22;8601;48.718;8.992;2023-07-29T02:51:58;16.80;99.90
16970;DHT22;8601;48.718;8.992;2023-07-29T02:54:25;16.80;99.90
16970;DHT22;8601;48.718;8.992;2023-07-29T02:56:53;16.80;99.90
16970;DHT22;8601;48.718;8.992;2023-07-29T02:59:20;16.80;99.90
16970;DHT22;8601;48.718;8.992;2023-07-29T03:01:47;16.80;99.90
16970;DHT22;8601;48.718;8.992;2023-07-29T03:04:13;16.80;99.90
16970;DHT22;8601;48.718;8.992;2023-07-29T03:06:42;16.80;99.90
16970;DHT22;8601;48.718;8.992;2023-07-29T03:09:09;16.80;99.90
16970;DHT22;8601;48.718;8.992;2023-07-29T03:11:35;16.80;99.90
16970;DHT22;8601;48.718;8.992;2023-07-29T03:14:02;16.80;99.90
16970;DHT22;8601;48.718;8.992;2023-07-29T03:16:29;16.80;99.90
16970;DHT22;8601;48.718;8.992;2023-07-29T03:18:56;16.80;99.90
16970;DHT22;8601;48.718;8.992;2023-07-29T03:21:23;16.80;99.90
16970;DHT22;8601;48.718;8.992;2023-07-29T03:23:52;16.80;99.90
16970;DHT22;8601;48.718;8.992;2023-07-29T03:26:18;16.80;99.90
16970;DHT22;8601;48.718;8.992;2023-07-29T03:28:45;16.80;99.90
16970;DHT22;8601;48.718;8.992;2023-07-29T03:31:12;16.80;99.90
16970;DHT22;8601;48.718;8.992;2023-07-29T03:33:39;16.80;99.90
16970;DHT22;8601;48.718;8.992;2023-07-29T03:36:06;16.80;99.90
16970;DHT22;8601;48.718;8.992;2023-07-29T03:38:32;16.80;99.90
16970;DHT22;8601;48.718;8.992;2023-07-29T03:41:02;16.80;99.90
16970;DHT22;8601;48.718;8.992;2023-07-29T03:43:29;16.80;99.90
16970;DHT22;8601;48.718;8.992;2023-07-29T03:45:56;16.80;99.90
16970;DHT22;8601;48.718;8.992;2023-07-29T03:48:23;16.80;99.90
16970;DHT22;8601;48.718;8.992;2023-07-29T03:50:50;16.90;99.90
16970;DHT22;8601;48.718;8.992;2023-07-29T03:53:17;16.90;99.90
16970;DHT22;8601;48.718;8.992;2023-07-29T03:55:44;16.90;99.90
16970;DHT22;8601;48.718;8.992;2023-07-29T03:58:12;16.90;99.90
16970;DHT22;8601;48.718;8.992;2023-07-29T04:00:39;16.90;99.90
16970;DHT22;8601;48.718;8.992;2023-07-29T04:03:06;16.80;99.90
16970;DHT22;8601;48.718;8.992;2023-07-29T04:05:33;16.80;99.90
16970;DHT22;8601;48.718;8.992;2023-07-29T04:08:00;16.80;99.90
16970;DHT22;8601;48.718;8.992;2023-07-29T04:10:27;16.80;99.90
16970;DHT22;8601;48.718;8.992;2023-07-29T04:12:57;16.80;99.90
16970;DHT22;8601;48.718;8.992;2023-07-29T04:15:25;16.80;99.90
16970;DHT22;8601;48.718;8.992;2023-07-29T04:17:52;16.80;99.90
16970;DHT22;8601;48.718;8.992;2023-07-29T04:20:19;16.80;99.90
16970;DHT22;8601;48.718;8.992;2023-07-29T04:22:46;16.80;99.90
16970;DHT22;8601;48.718;8.992;2023-07-29T04:25:13;16.80;99.90
16970;DHT22;8601;48.718;8.992;2023-07-29T04:27:40;16.80;99.90
16970;DHT22;8601;48.718;8.992;2023-07-29T04:30:07;16.80;99.90
16970;DHT22;8601;48.718;8.992;2023-07-29T04:32:36;16.80;99.90
16970;DHT22;8601;48.718;8.992;2023-07-29T04:35:03;16.80;99.90
16970;DHT22;8601;48.718;8.992;2023-07-29T04:37:30;16.80;99.90
16970;DHT22;8601;48.718;8.992;2023-07-29T04:39:57;16.80;99.90
16970;DHT22;8601;48.718;8.992;2023-07-29T04:42:24;16.70;99.90
16970;DHT22;8601;48.718;8.992;2023-07-29T04:44:51;16.70;99.90
16970;DHT22;8601;48.718;8.992;2023-07-29T04:47:18;16.80;99.90
16970;DHT22;8601;48.718;8.992;2023-07-29T04:49:46;16.80;99.90
16970;DHT22;8601;48.718;8.992;2023-07-29T04:52:13;16.70;99.90
16970;DHT22;8601;48.718;8.992;2023-07-29T04:54:40;16.70;99.90
16970;DHT22;8601;48.718;8.992;2023-07-29T04:57:07;16.70;99.90
16970;DHT22;8601;48.718;8.992;2023-07-29T04:59:34;16.70;99.90
16970;DHT22;8601;48.718;8.992;2023-07-29T05:02:01;16.70;99.90
16970;DHT22;8601;48.718;8.992;2023-07-29T05:04:27;16.70;99.90
16970;DHT22;8601;48.718;8.992;2023-07-29T05:06:56;16.70;99.90
16970;DHT22;8601;48.718;8.992;2023-07-29T05:09:23;16.70;99.90
16970;DHT22;8601;48.718;8.992;2023-07-29T05:11:50;16.80;99.90
16970;DHT22;8601;48.718;8.992;2023-07-29T05:14:17;16.80;99.90
16970;DHT22;8601;48.718;8.992;2023-07-29T05:16:44;16.80;99.90
16970;DHT22;8601;48.718;8.992;2023-07-29T05:19:12;16.80;99.90
16970;DHT22;8601;48.718;8.992;2023-07-29T05:21:39;16.90;99.90
16970;DHT22;8601;48.718;8.992;2023-07-29T05:24:08;16.90;99.90
16970;DHT22;8601;48.718;8.992;2023-07-29T05:26:35;16.90;99.90
16970;DHT22;8601;48.718;8.992;2023-07-29T05:29:01;16.90;99.90
16970;DHT22;8601;48.718;8.992;2023-07-29T05:31:29;17.00;99.90
16970;DHT22;8601;48.718;8.992;2023-07-29T05:33:56;17.00;99.90
16970;DHT22;8601;48.718;8.992;2023-07-29T05:36:23;17.00;99.90
16970;DHT22;8601;48.718;8.992;2023-07-29T05:38:50;17.10;99.90
16970;DHT22;8601;48.718;8.992;2023-07-29T05:41:19;17.10;99.90
16970;DHT22;8601;48.718;8.992;2023-07-29T05:43:46;17.20;99.90
16970;DHT22;8601;48.718;8.992;2023-07-29T05:46:13;17.30;99.90
16970;DHT22;8601;48.718;8.992;2023-07-29T05:48:41;17.30;99.90
16970;DHT22;8601;48.718;8.992;2023-07-29T05:51:08;17.40;99.90
16970;DHT22;8601;48.718;8.992;2023-07-29T05:53:34;17.40;99.90
16970;DHT22;8601;48.718;8.992;2023-07-29T05:56:01;17.50;99.90
16970;DHT22;8601;48.718;8.992;2023-07-29T05:58:30;17.50;99.90
16970;DHT22;8601;48.718;8.992;2023-07-29T06:00:58;17.60;99.90
16970;DHT22;8601;48.718;8.992;2023-07-29T06:03:25;17.70;99.90
16970;DHT22;8601;48.718;8.992;2023-07-29T06:05:52;17.70;99.90
16970;DHT22;8601;48.718;8.992;2023-07-29T06:08:19;17.80;99.90
16970;DHT22;8601;48.718;8.992;2023-07-29T06:10:46;17.80;99.90
16970;DHT22;8601;48.718;8.992;2023-07-29T06:13:13;17.80;99.90
16970;DHT22;8601;48.718;8.992;2023-07-29T06:15:42;17.90;99.90
16970;DHT22;8601;48.718;8.992;2023-07-29T06:18:09;18.00;99.90
16970;DHT22;8601;48.718;8.992;2023-07-29T06:20:36;18.00;99.90
16970;DHT22;8601;48.718;8.992;2023-07-29T06:23:04;18.10;99.90
16970;DHT22;8601;48.718;8.992;2023-07-29T06:25:31;18.20;99.90
16970;DHT22;8601;48.718;8.992;2023-07-29T06:27:58;18.20;99.90
16970;DHT22;8601;48.718;8.992;2023-07-29T06:30:25;18.20;99.90
16970;DHT22;8601;48.718;8.992;2023-07-29T06:32:54;18.10;99.90
16970;DHT22;8601;48.718;8.992;2023-07-29T06:35:21;18.20;99.90
16970;DHT22;8601;48.718;8.992;2023-07-29T06:37:49;18.10;99.90
16970;DHT22;8601;48.718;8.992;2023-07-29T06:40:16;18.10;99.90
16970;DHT22;8601;48.718;8.992;2023-07-29T06:42:43;18.10;99.90
16970;DHT22;8601;48.718;8.992;2023-07-29T06:45:10;18.10;99.90
16970;DHT22;8601;48.718;8.992;2023-07-29T06:47:37;18.10;99.90
16970;DHT22;8601;48.718;8.992;2023-07-29T06:50:06;18.00;99.90
16970;DHT22;8601;48.718;8.992;2023-07-29T06:52:33;17.90;99.90
16970;DHT22;8601;48.718;8.992;2023-07-29T06:55:00;17.90;99.90
16970;DHT22;8601;48.718;8.992;2023-07-29T06:57:26;17.90;99.90
16970;DHT22;8601;48.718;8.992;2023-07-29T06:59:53;17.90;99.90
16970;DHT22;8601;48.718;8.992;2023-07-29T07:02:20;17.80;99.90
16970;DHT22;8601;48.718;8.992;2023-07-29T07:04:47;17.80;99.90
16970;DHT22;8601;48.718;8.992;2023-07-29T07:07:16;17.80;99.90
16970;DHT22;8601;48.718;8.992;2023-07-29T07:09:43;17.80;99.90
16970;DHT22;8601;48.718;8.992;2023-07-29T07:12:10;17.80;99.90
16970;DHT22;8601;48.718;8.992;2023-07-29T07:14:37;17.80;99.90
16970;DHT22;8601;48.718;8.992;2023-07-29T07:17:04;17.90;99.90
16970;DHT22;8601;48.718;8.992;2023-07-29T07:19:31;17.90;99.90
16970;DHT22;8601;48.718;8.992;2023-07-29T07:21:58;17.90;99.90
16970;DHT22;8601;48.718;8.992;2023-07-29T07:24:27;17.90;99.90
16970;DHT22;8601;48.718;8.992;2023-07-29T07:26:53;17.90;99.90
16970;DHT22;8601;48.718;8.992;2023-07-29T07:29:20;17.90;99.90
16970;DHT22;8601;48.718;8.992;2023-07-29T07:31:50;17.90;99.90
16970;DHT22;8601;48.718;8.992;2023-07-29T07:34:18;17.90;99.90
16970;DHT22;8601;48.718;8.992;2023-07-29T07:36:45;17.90;99.90
16970;DHT22;8601;48.718;8.992;2023-07-29T07:39:12;17.90;99.90
16970;DHT22;8601;48.718;8.992;2023-07-29T07:41:40;17.90;99.90
16970;DHT22;8601;48.718;8.992;2023-07-29T07:44:07;17.90;99.90
16970;DHT22;8601;48.718;8.992;2023-07-29T07:46:34;18.00;99.90
16970;DHT22;8601;48.718;8.992;2023-07-29T07:49:01;18.10;99.90
16970;DHT22;8601;48.718;8.992;2023-07-29T07:51:28;18.10;99.90
16970;DHT22;8601;48.718;8.992;2023-07-29T07:53:54;18.20;99.90
16970;DHT22;8601;48.718;8.992;2023-07-29T07:56:21;18.30;99.90
16970;DHT22;8601;48.718;8.992;2023-07-29T07:58:49;18.30;99.90
16970;DHT22;8601;48.718;8.992;2023-07-29T08:01:16;18.40;99.90
16970;DHT22;8601;48.718;8.992;2023-07-29T08:03:43;18.30;99.90
16970;DHT22;8601;48.718;8.992;2023-07-29T08:06:10;18.50;99.90
16970;DHT22;8601;48.718;8.992;2023-07-29T08:08:37;18.50;99.90
16970;DHT22;8601;48.718;8.992;2023-07-29T08:11:04;18.60;99.90
16970;DHT22;8601;48.718;8.992;2023-07-29T08:13:31;18.70;99.90
16970;DHT22;8601;48.718;8.992;2023-07-29T08:15:59;18.70;99.90
16970;DHT22;8601;48.718;8.992;2023-07-29T08:18:26;18.80;99.90
16970;DHT22;8601;48.718;8.992;2023-07-29T08:20:53;18.90;99.90
16970;DHT22;8601;48.718;8.992;2023-07-29T08:23:20;18.80;99.90
16970;DHT22;8601;48.718;8.992;2023-07-29T08:25:52;18.90;99.90
16970;DHT22;8601;48.718;8.992;2023-07-29T08:28:19;18.90;99.90
16970;DHT22;8601;48.718;8.992;2023-07-29T08:30:46;19.00;99.90
16970;DHT22;8601;48.718;8.992;2023-07-29T08:33:14;19.10;99.90
16970;DHT22;8601;48.718;8.992;2023-07-29T08:35:41;19.20;99.90
16970;DHT22;8601;48.718;8.992;2023-07-29T08:38:09;19.30;99.90
16970;DHT22;8601;48.718;8.992;2023-07-29T08:40:38;19.40;99.90
16970;DHT22;8601;48.718;8.992;2023-07-29T08:43:07;19.40;99.90
16970;DHT22;8601;48.718;8.992;2023-07-29T08:45:36;19.50;99.90
16970;DHT22;8601;48.718;8.992;2023-07-29T08:48:07;19.60;99.90
16970;DHT22;8601;48.718;8.992;2023-07-29T08:50:37;19.70;99.90
16970;DHT22;8601;48.718;8.992;2023-07-29T08:53:04;19.80;99.90
16970;DHT22;8601;48.718;8.992;2023-07-29T08:55:32;19.80;99.90
16970;DHT22;8601;48.718;8.992;2023-07-29T08:58:00;19.90;99.90
16970;DHT22;8601;48.718;8.992;2023-07-29T09:00:27;19.90;99.90
16970;DHT22;8601;48.718;8.992;2023-07-29T09:02:55;19.90;99.90
16970;DHT22;8601;48.718;8.992;2023-07-29T09:05:23;20.00;99.90
16970;DHT22;8601;48.718;8.992;2023-07-29T09:07:53;20.10;99.90
16970;DHT22;8601;48.718;8.992;2023-07-29T09:10:22;20.20;99.90
16970;DHT22;8601;48.718;8.992;2023-07-29T09:12:50;20.40;99.90
16970;DHT22;8601;48.718;8.992;2023-07-29T09:15:27;20.70;99.90
16970;DHT22;8601;48.718;8.992;2023-07-29T09:17:55;21.10;99.90
16970;DHT22;8601;48.718;8.992;2023-07-29T09:20:26;21.00;99.90
16970;DHT22;8601;48.718;8.992;2023-07-29T09:22:58;21.10;99.90
16970;DHT22;8601;48.718;8.992;2023-07-29T09:25:26;21.20;99.90
16970;DHT22;8601;48.718;8.992;2023-07-29T09:27:53;21.10;99.90
16970;DHT22;8601;48.718;8.992;2023-07-29T09:30:25;21.20;99.90
16970;DHT22;8601;48.718;8.992;2023-07-29T09:32:55;21.10;99.90
16970;DHT22;8601;48.718;8.992;2023-07-29T09:35:24;21.00;99.90
16970;DHT22;8601;48.718;8.992;2023-07-29T09:37:52;20.90;99.90
16970;DHT22;8601;48.718;8.992;2023-07-29T09:40:20;21.00;99.90
16970;DHT22;8601;48.718;8.992;2023-07-29T09:42:50;21.40;99.90
16970;DHT22;8601;48.718;8.992;2023-07-29T09:45:21;21.50;99.90
16970;DHT22;8601;48.718;8.992;2023-07-29T09:47:49;21.40;99.90
16970;DHT22;8601;48.718;8.992;2023-07-29T09:50:16;21.40;99.90
16970;DHT22;8601;48.718;8.992;2023-07-29T09:52:44;21.60;99.90
16970;DHT22;8601;48.718;8.992;2023-07-29T09:55:12;22.00;99.90
16970;DHT22;8601;48.718;8.992;2023-07-29T09:57:41;22.10;99.90
16970;DHT22;8601;48.718;8.992;2023-07-29T10:00:11;22.10;99.90
16970;DHT22;8601;48.718;8.992;2023-07-29T10:02:39;22.30;99.90
16970;DHT22;8601;48.718;8.992;2023-07-29T10:05:07;22.50;99.90
16970;DHT22;8601;48.718;8.992;2023-07-29T10:07:36;22.50;99.90
16970;DHT22;8601;48.718;8.992;2023-07-29T10:10:05;22.70;99.90
16970;DHT22;8601;48.718;8.992;2023-07-29T10:12:32;23.10;99.90
16970;DHT22;8601;48.718;8.992;2023-07-29T10:15:03;23.10;99.90
16970;DHT22;8601;48.718;8.992;2023-07-29T10:17:30;23.00;99.90
16970;DHT22;8601;48.718;8.992;2023-07-29T10:19:57;22.90;99.90
16970;DHT22;8601;48.718;8.992;2023-07-29T10:22:27;22.70;99.90
16970;DHT22;8601;48.718;8.992;2023-07-29T10:25:05;22.70;99.90
16970;DHT22;8601;48.718;8.992;2023-07-29T10:27:42;22.70;99.90
16970;DHT22;8601;48.718;8.992;2023-07-29T10:30:11;22.60;99.90
16970;DHT22;8601;48.718;8.992;2023-07-29T10:32:39;22.40;99.90
16970;DHT22;8601;48.718;8.992;2023-07-29T10:35:08;22.40;99.90
16970;DHT22;8601;48.718;8.992;2023-07-29T10:37:35;22.40;99.90
16970;DHT22;8601;48.718;8.992;2023-07-29T10:40:07;22.50;99.90
16970;DHT22;8601;48.718;8.992;2023-07-29T10:42:34;22.60;99.90
16970;DHT22;8601;48.718;8.992;2023-07-29T10:45:19;22.80;99.90
16970;DHT22;8601;48.718;8.992;2023-07-29T10:47:47;23.00;99.90
16970;DHT22;8601;48.718;8.992;2023-07-29T10:50:18;23.10;99.90
16970;DHT22;8601;48.718;8.992;2023-07-29T10:52:49;23.30;99.90
16970;DHT22;8601;48.718;8.992;2023-07-29T10:55:28;23.50;99.90
16970;DHT22;8601;48.718;8.992;2023-07-29T10:58:07;23.60;99.90
16970;DHT22;8601;48.718;8.992;2023-07-29T11:00:36;23.60;99.90
16970;DHT22;8601;48.718;8.992;2023-07-29T11:03:05;23.60;99.90
16970;DHT22;8601;48.718;8.992;2023-07-29T11:05:51;23.40;99.90
16970;DHT22;8601;48.718;8.992;2023-07-29T11:08:20;23.30;99.90
16970;DHT22;8601;48.718;8.992;2023-07-29T11:10:58;23.20;99.90
16970;DHT22;8601;48.718;8.992;2023-07-29T11:13:26;23.20;99.90
16970;DHT22;8601;48.718;8.992;2023-07-29T11:15:55;23.20;99.90
16970;DHT22;8601;48.718;8.992;2023-07-29T11:18:27;23.10;99.90
16970;DHT22;8601;48.718;8.992;2023-07-29T11:20:55;23.00;99.90
16970;DHT22;8601;48.718;8.992;2023-07-29T11:23:30;22.90;99.90
16970;DHT22;8601;48.718;8.992;2023-07-29T11:25:58;22.90;99.90
16970;DHT22;8601;48.718;8.992;2023-07-29T11:28:25;22.90;99.90
16970;DHT22;8601;48.718;8.992;2023-07-29T11:30:55;23.00;99.90
16970;DHT22;8601;48.718;8.992;2023-07-29T11:33:23;23.00;99.90
16970;DHT22;8601;48.718;8.992;2023-07-29T11:35:50;23.10;99.90
16970;DHT22;8601;48.718;8.992;2023-07-29T11:38:18;23.00;99.90
16970;DHT22;8601;48.718;8.992;2023-07-29T11:40:54;23.00;99.90
16970;DHT22;8601;48.718;8.992;2023-07-29T11:43:21;23.10;99.90
16970;DHT22;8601;48.718;8.992;2023-07-29T11:45:48;23.20;99.90
16970;DHT22;8601;48.718;8.992;2023-07-29T11:48:16;23.30;99.90
16970;DHT22;8601;48.718;8.992;2023-07-29T11:50:43;23.40;99.90
16970;DHT22;8601;48.718;8.992;2023-07-29T11:53:11;23.40;99.90
16970;DHT22;8601;48.718;8.992;2023-07-29T11:55:39;23.70;99.90
16970;DHT22;8601;48.718;8.992;2023-07-29T11:58:05;23.60;99.10
16970;DHT22;8601;48.718;8.992;2023-07-29T12:00:32;23.80;99.70
16970;DHT22;8601;48.718;8.992;2023-07-29T12:03:00;24.10;98.30
16970;DHT22;8601;48.718;8.992;2023-07-29T12:05:29;24.20;96.30
16970;DHT22;8601;48.718;8.992;2023-07-29T12:07:57;24.30;95.80
16970;DHT22;8601;48.718;8.992;2023-07-29T12:10:25;24.20;95.00
16970;DHT22;8601;48.718;8.992;2023-07-29T12:12:52;23.90;95.80
16970;DHT22;8601;48.718;8.992;2023-07-29T12:15:26;23.80;94.70
16970;DHT22;8601;48.718;8.992;2023-07-29T12:17:54;23.60;93.30
16970;DHT22;8601;48.718;8.992;2023-07-29T12:20:23;23.60;92.20
16970;DHT22;8601;48.718;8.992;2023-07-29T12:22:56;23.70;94.30
16970;DHT22;8601;48.718;8.992;2023-07-29T12:25:23;24.00;93.80
16970;DHT22;8601;48.718;8.992;2023-07-29T12:27:50;24.20;91.70
16970;DHT22;8601;48.718;8.992;2023-07-29T12:30:20;24.40;91.20
16970;DHT22;8601;48.718;8.992;2023-07-29T12:32:48;24.20;89.40
16970;DHT22;8601;48.718;8.992;2023-07-29T12:35:15;24.10;90.80
16970;DHT22;8601;48.718;8.992;2023-07-29T12:37:43;24.10;89.60
16970;DHT22;8601;48.718;8.992;2023-07-29T12:40:26;24.10;91.10
16970;DHT22;8601;48.718;8.992;2023-07-29T12:42:54;24.20;90.00
16970;DHT22;8601;48.718;8.992;2023-07-29T12:45:21;24.40;89.70
16970;DHT22;8601;48.718;8.992;2023-07-29T12:47:48;24.50;92.20
16970;DHT22;8601;48.718;8.992;2023-07-29T12:50:16;24.60;90.40
16970;DHT22;8601;48.718;8.992;2023-07-29T12:52:43;24.60;90.70
16970;DHT22;8601;48.718;8.992;2023-07-29T12:55:10;24.60;91.50
16970;DHT22;8601;48.718;8.992;2023-07-29T12:57:41;24.80;89.50
16970;DHT22;8601;48.718;8.992;2023-07-29T13:00:10;24.90;89.80
16970;DHT22;8601;48.718;8.992;2023-07-29T13:02:37;24.90;87.60
16970;DHT22;8601;48.718;8.992;2023-07-29T13:05:06;24.90;85.20
16970;DHT22;8601;48.718;8.992;2023-07-29T13:07:33;24.90;89.70
16970;DHT22;8601;48.718;8.992;2023-07-29T13:10:00;25.00;90.80
16970;DHT22;8601;48.718;8.992;2023-07-29T13:12:28;25.00;89.60
16970;DHT22;8601;48.718;8.992;2023-07-29T13:14:57;24.90;91.30
16970;DHT22;8601;48.718;8.992;2023-07-29T13:17:24;24.90;88.40
16970;DHT22;8601;48.718;8.992;2023-07-29T13:19:51;24.90;87.00
16970;DHT22;8601;48.718;8.992;2023-07-29T13:22:20;24.90;88.70
16970;DHT22;8601;48.718;8.992;2023-07-29T13:24:47;24.90;84.40
16970;DHT22;8601;48.718;8.992;2023-07-29T13:27:13;24.80;88.10
16970;DHT22;8601;48.718;8.992;2023-07-29T13:29:40;24.50;82.80
16970;DHT22;8601;48.718;8.992;2023-07-29T13:32:10;24.30;85.70
16970;DHT22;8601;48.718;8.992;2023-07-29T13:34:37;24.20;86.30
16970;DHT22;8601;48.718;8.992;2023-07-29T13:37:05;24.00;85.70
16970;DHT22;8601;48.718;8.992;2023-07-29T13:39:32;24.00;87.00
16970;DHT22;8601;48.718;8.992;2023-07-29T13:41:59;24.00;88.60
16970;DHT22;8601;48.718;8.992;2023-07-29T13:44:26;24.00;86.80
16970;DHT22;8601;48.718;8.992;2023-07-29T13:46:54;24.00;88.20
16970;DHT22;8601;48.718;8.992;2023-07-29T13:49:22;23.90;87.10
16970;DHT22;8601;48.718;8.992;2023-07-29T13:51:49;23.90;90.30
16970;DHT22;8601;48.718;8.992;2023-07-29T13:54:16;23.90;88.80
16970;DHT22;8601;48.718;8.992;2023-07-29T13:56:43;23.90;88.80
16970;DHT22;8601;48.718;8.992;2023-07-29T13:59:10;23.90;89.00
16970;DHT22;8601;48.718;8.992;2023-07-29T14:01:37;24.00;89.30
16970;DHT22;8601;48.718;8.992;2023-07-29T14:04:04;23.90;90.80
16970;DHT22;8601;48.718;8.992;2023-07-29T14:06:32;24.00;90.10
16970;DHT22;8601;48.718;8.992;2023-07-29T14:08:59;23.90;90.70
16970;DHT22;8601;48.718;8.992;2023-07-29T14:11:26;23.80;90.30
16970;DHT22;8601;48.718;8.992;2023-07-29T14:13:54;23.80;90.90
16970;DHT22;8601;48.718;8.992;2023-07-29T14:16:21;23.70;91.20
16970;DHT22;8601;48.718;8.992;2023-07-29T14:18:48;23.70;90.50
16970;DHT22;8601;48.718;8.992;2023-07-29T14:21:15;23.50;88.50
16970;DHT22;8601;48.718;8.992;2023-07-29T14:23:43;23.40;90.30
16970;DHT22;8601;48.718;8.992;2023-07-29T14:26:10;23.50;89.70
16970;DHT22;8601;48.718;8.992;2023-07-29T14:28:37;23.50;87.20
16970;DHT22;8601;48.718;8.992;2023-07-29T14:31:04;23.60;87.90
16970;DHT22;8601;48.718;8.992;2023-07-29T14:33:30;23.60;89.90
16970;DHT22;8601;48.718;8.992;2023-07-29T14:35:58;23.60;90.50
16970;DHT22;8601;48.718;8.992;2023-07-29T14:38:24;23.60;89.40
16970;DHT22;8601;48.718;8.992;2023-07-29T14:40:53;23.50;90.00
16970;DHT22;8601;48.718;8.992;2023-07-29T14:43:22;23.40;89.30
16970;DHT22;8601;48.718;8.992;2023-07-29T14:45:49;23.40;90.30
16970;DHT22;8601;48.718;8.992;2023-07-29T14:48:15;23.40;90.90
16970;DHT22;8601;48.718;8.992;2023-07-29T14:50:42;23.40;91.30
16970;DHT22;8601;48.718;8.992;2023-07-29T14:53:10;23.40;88.90
16970;DHT22;8601;48.718;8.992;2023-07-29T14:55:37;23.40;87.60
16970;DHT22;8601;48.718;8.992;2023-07-29T14:58:05;23.40;88.50
16970;DHT22;8601;48.718;8.992;2023-07-29T15:00:32;23.50;90.00
16970;DHT22;8601;48.718;8.992;2023-07-29T15:02:59;23.50;87.40
16970;DHT22;8601;48.718;8.992;2023-07-29T15:05:27;23.50;87.90
16970;DHT22;8601;48.718;8.992;2023-07-29T15:07:54;23.50;89.00
16970;DHT22;8601;48.718;8.992;2023-07-29T15:10:21;23.50;87.80
16970;DHT22;8601;48.718;8.992;2023-07-29T15:12:48;23.50;86.90
16970;DHT22;8601;48.718;8.992;2023-07-29T15:15:16;23.50;87.20
16970;DHT22;8601;48.718;8.992;2023-07-29T15:17:43;23.50;88.60
16970;DHT22;8601;48.718;8.992;2023-07-29T15:20:11;23.50;88.20
16970;DHT22;8601;48.718;8.992;2023-07-29T15:22:38;23.60;87.80
16970;DHT22;8601;48.718;8.992;2023-07-29T15:25:07;23.70;88.10
16970;DHT22;8601;48.718;8.992;2023-07-29T15:27:35;23.70;88.80
16970;DHT22;8601;48.718;8.992;2023-07-29T15:30:02;23.70;86.90
16970;DHT22;8601;48.718;8.992;2023-07-29T15:32:31;23.80;87.90
16970;DHT22;8601;48.718;8.992;2023-07-29T15:34:58;23.90;85.70
16970;DHT22;8601;48.718;8.992;2023-07-29T15:37:25;24.10;87.40
16970;DHT22;8601;48.718;8.992;2023-07-29T15:39:52;24.10;85.60
16970;DHT22;8601;48.718;8.992;2023-07-29T15:42:19;24.10;87.20
16970;DHT22;8601;48.718;8.992;2023-07-29T15:44:46;24.10;86.40
16970;DHT22;8601;48.718;8.992;2023-07-29T15:47:13;24.20;85.00
16970;DHT22;8601;48.718;8.992;2023-07-29T15:49:45;24.40;85.10